Aeroporto :
LOGIN :

Iscrizione | Disclaimer

   EN    FR    IT 

 










Sommario :    VFR   VFR Marginale   IFR   IFR Intensivo   IFR Molto Intensivo
Visibilità : 
Base nubi : 
>= 8 km
>= 3000ft
5 / 8 km
1000 / 3000 ft
1500m / 5 km
500 / 1000 ft
800 / 1500m
200 / 500 ft
< 800m
< 200 ft
Simboli :   Temporali  Nebbia  Neve Forte  Precipitazioni Forti  Vento > 20 kt
SIGMETs :   Varie  Temporali  Ghiacco  Turbolenza  Onda orograficha  Ceneri Vulcaniche







- Altitudine del aeroporto : 1989 ft
- Codice IATA : KLV


LKKV - Karlovy Vary

ULTIMO METAR :
  • 191900Z 13004KT CAVOK 19/14 Q1011

METARs OBSOLETI :
  • 191830Z 17003KT CAVOK 21/14 Q1011
  • 191800Z 14007KT CAVOK 22/14 Q1012
  • 191730Z 15007KT CAVOK 23/14 Q1011
  • 191700Z 14009KT CAVOK 22/15 Q1012
  • 191630Z 13008KT CAVOK 22/15 Q1011

TAF TAF LKKV
Valido dal 19 a 18 ore il 21 a 00 ore UTC


191700Z 1918/2100 11004KT CAVOK
TEMPO 1918/1920 14012KT 8000 SHRA SCT040TCU
BECMG 2004/2006 27010KT
TEMPO 2010/2021 11012KT 8000 SHRA SCT040TCU
PROB30
TEMPO 2012/2019 4000 TSRA SCT030CB
Nessun NOTAM noto per questo aeroporto.
1 SIGMET conosciuto per la FIR Praha (LKAA) :
 
Linea di groppi
LKAA SIGMET 4 VALID 191847/191947 LKPW
LKAA PRAHA FIR SQL TS OBS WI N4841 E01646 - N4846 E01546 - N4923 E01557 - N4930 E01630 - N4912 E01649 - N4841 E01646 TOP FL360 MOV N WKN=



MetMap, La meteo Aeronautica in un colpo d'occhio ! - Copyright ORBIFLY Dicembre 2007 - Disclaimer

ORBIFLY MET'MAP TEAM :

Programmazione e sviluppo : Alexandra Zaïnal
Concezione e sviluppo : Baudouin d'Aumeries
Co-Programmazione e sviluppo : Marc-Olivier Méhu
Supporto tecnico e logistico : Manuel Goepfert
Aiuto per la traduzione : Arnaldo La Scala

Contatto : metmap@orbifly.com




FONTI E CREDITI :

   NOAA